EDT,Max TemperatureF,Mean TemperatureF,Min TemperatureF,Max Dew PointF,MeanDew PointF,Min DewpointF,Max Humidity, Mean Humidity, Min Humidity, Max Sea Level PressureIn, Mean Sea Level PressureIn, Min Sea Level PressureIn, Max VisibilityMiles, Mean VisibilityMiles, Min VisibilityMiles, Max Wind SpeedMPH, Mean Wind SpeedMPH, Max Gust SpeedMPH,PrecipitationIn, CloudCover, Events, WindDirDegrees
2013-8-1,74,63,52,63,60,52,100,79,57,30.01,29.86,29.79,10,6,0,22,5,30,0.64,5,Fog-Rain-Thunderstorm,211
2013-8-2,72,63,54,61,56,49,100,74,47,29.86,29.84,29.81,10,10,7,17,7,23,0.01,5,,240
2013-8-3,67,61,54,57,54,51,100,82,63,29.88,29.84,29.79,10,10,6,16,8,26,0.19,6,Rain,240
2013-8-4,66,59,51,54,52,48,100,76,52,29.99,29.91,29.86,10,10,3,14,6,22,0.03,6,Rain,269
2013-8-5,68,53,37,48,41,36,100,70,39,30.08,30.03,30.00,10,6,0,14,3,23,0.00,1,Fog,321
2013-8-6,72,56,39,51,45,39,100,69,38,30.13,30.11,30.09,10,10,10,10,2,28,0.00,1,,218
2013-8-7,75,60,45,61,54,45,100,75,49,30.12,30.05,29.95,10,10,8,23,9,29,0.01,4,,190
2013-8-8,79,72,64,67,64,60,100,79,58,30.02,29.97,29.93,10,8,2,16,5,21,0.15,6,Rain,230
2013-8-9,72,67,62,68,65,61,100,92,84,29.96,29.88,29.80,10,6,1,12,4,18,0.75,7,Rain,218
2013-8-10,66,62,57,60,50,44,97,71,45,30.06,29.97,29.86,10,10,10,13,6,24,0.00,3,,266
2013-8-11,71,57,42,54,48,41,100,72,44,30.10,30.07,30.04,10,7,0,13,4,18,0.00,3,Fog,237
2013-8-12,73,62,50,54,51,49,100,74,47,30.04,29.98,29.91,10,10,10,14,6,21,0.00,2,,228
2013-8-13,64,58,51,61,57,51,100,92,84,29.89,29.77,29.71,10,8,0,13,3,20,0.57,7,Fog-Rain,229
2013-8-14,60,51,42,54,50,45,96,83,69,30.01,29.82,29.74,10,8,2,13,6,20,0.20,6,Rain,262
2013-8-15,67,53,39,51,45,38,100,74,48,30.07,30.05,30.02,10,10,3,15,7,21,0.00,2,,232
2013-8-16,71,56,40,55,52,49,100,76,51,30.24,30.19,30.14,10,8,2,12,3,18,0.00,3,,252
2013-8-17,73,59,45,55,50,45,100,71,41,30.32,30.29,30.25,10,6,0,8,2,15,0.00,3,Fog,266
2013-8-18,74,59,43,56,47,43,100,71,41,30.31,30.26,30.13,10,4,0,13,3,28,0.00,2,Fog,236
2013-8-19,77,61,45,57,50,44,100,73,46,30.13,30.08,30.03,10,8,2,14,4,22,0.00,1,,247
2013-8-20,78,63,48,59,54,47,100,75,50,30.15,30.09,30.05,10,7,1,13,5,21,0.00,1,,235
2013-8-21,80,65,49,62,55,48,100,77,54,30.17,30.13,30.04,9,5,0,15,5,22,0.00,2,Fog,232
2013-8-22,79,66,53,64,59,52,100,82,64,30.06,29.96,29.88,10,4,0,16,5,30,0.30,4,Fog-Rain-Thunderstorm,236
2013-8-23,68,54,40,61,51,40,100,74,48,30.24,30.05,29.96,10,6,0,12,3,16,0.00,3,Fog,6
2013-8-24,73,54,34,53,43,34,100,71,41,30.39,30.30,30.22,10,4,0,8,1,26,0.00,3,Fog,220
2013-8-25,75,58,40,57,45,39,100,66,31,30.39,30.32,30.14,10,6,0,14,4,25,0.02,3,Fog-Rain,238
2013-8-26,71,65,59,67,63,57,100,90,79,30.12,29.97,29.92,10,6,1,12,6,18,0.13,8,Rain-Thunderstorm,232
2013-8-27,73,66,58,66,63,57,100,90,79,29.97,29.94,29.90,10,6,0,9,2,14,0.00,7,Fog,232
2013-8-28,83,72,61,66,63,60,100,76,51,29.98,29.93,29.88,10,4,0,18,2,29,0.00,6,Fog,47
2013-8-29,80,67,54,64,60,53,100,76,52,30.07,30.02,29.97,10,4,0,13,2,17,0.00,4,Fog,10
2013-8-30,81,68,54,64,60,54,100,76,51,30.05,29.94,29.80,10,5,0,14,6,24,0.03,4,Fog,221
2013-8-31,72,67,61,67,64,60,100,92,84,29.86,29.81,29.77,7,5,2,10,1,31,0.13,8,Rain,170